createdAt,value
2022-11-27T00:00:34.258Z,1006.51
2022-11-27T00:01:34.206Z,1006.48
2022-11-27T00:03:27.299Z,1006.43
2022-11-27T00:04:27.045Z,1006.46
2022-11-27T00:06:43.519Z,1006.45
2022-11-27T00:07:43.553Z,1006.44
2022-11-27T00:09:47.445Z,1006.37
2022-11-27T00:10:47.402Z,1006.37
2022-11-27T00:12:51.398Z,1006.40
2022-11-27T00:13:51.335Z,1006.38
2022-11-27T00:15:55.296Z,1006.35
2022-11-27T00:16:55.248Z,1006.32
2022-11-27T00:18:59.212Z,1006.33
2022-11-27T00:19:59.157Z,1006.32
2022-11-27T00:22:03.121Z,1006.26
2022-11-27T00:23:03.085Z,1006.22
2022-11-27T00:25:07.044Z,1006.11
2022-11-27T00:26:06.999Z,1006.09
2022-11-27T00:28:10.962Z,1006.02
2022-11-27T00:29:10.929Z,1006.01
2022-11-27T00:31:14.927Z,1005.95
2022-11-27T00:32:14.850Z,1005.88
2022-11-27T00:34:18.822Z,1005.89
2022-11-27T00:35:18.774Z,1005.90
2022-11-27T00:37:22.756Z,1005.82
2022-11-27T00:38:22.705Z,1005.79
2022-11-27T00:40:26.654Z,1005.79
2022-11-27T00:41:26.628Z,1005.80
2022-11-27T00:43:19.523Z,1005.78
2022-11-27T00:44:19.481Z,1005.76
2022-11-27T00:46:28.075Z,1005.74
2022-11-27T00:47:23.394Z,1005.73
2022-11-27T00:49:27.357Z,1005.73
2022-11-27T00:50:27.313Z,1005.75
2022-11-27T00:52:31.281Z,1005.68
2022-11-27T00:53:31.752Z,1005.68
2022-11-27T00:55:35.176Z,1005.67
2022-11-27T00:56:35.158Z,1005.63
2022-11-27T00:58:39.124Z,1005.59
2022-11-27T00:59:39.071Z,1005.57
2022-11-27T01:01:43.103Z,1005.60
2022-11-27T01:02:43.040Z,1005.61
2022-11-27T01:03:42.963Z,1005.65
2022-11-27T01:04:42.942Z,1005.59
2022-11-27T01:05:42.920Z,1005.59
2022-11-27T01:06:42.901Z,1005.63
2022-11-27T01:07:42.917Z,1005.63
2022-11-27T01:08:42.867Z,1005.58
2022-11-27T01:09:42.833Z,1005.59
2022-11-27T01:10:42.817Z,1005.63
2022-11-27T01:11:42.795Z,1005.66
2022-11-27T01:12:42.772Z,1005.66
2022-11-27T01:13:42.751Z,1005.66
2022-11-27T01:14:42.736Z,1005.63
2022-11-27T01:15:42.745Z,1005.65
2022-11-27T01:16:43.405Z,1005.65
2022-11-27T01:17:42.665Z,1005.60
2022-11-27T01:18:42.648Z,1005.59
2022-11-27T01:19:42.624Z,1005.60
2022-11-27T01:20:42.605Z,1005.58
2022-11-27T01:21:42.580Z,1005.54
2022-11-27T01:22:42.559Z,1005.62
2022-11-27T01:23:42.542Z,1005.55
2022-11-27T01:24:42.710Z,1005.57
2022-11-27T01:25:42.494Z,1005.58
2022-11-27T01:26:42.470Z,1005.54
2022-11-27T01:27:42.450Z,1005.55
2022-11-27T01:28:42.430Z,1005.48
2022-11-27T01:29:42.410Z,1005.46
2022-11-27T01:30:42.387Z,1005.50
2022-11-27T01:31:42.394Z,1005.47
2022-11-27T01:32:42.342Z,1005.47
2022-11-27T01:33:42.323Z,1005.42
2022-11-27T01:34:42.577Z,1005.43
2022-11-27T01:35:42.276Z,1005.46
2022-11-27T01:36:42.257Z,1005.47
2022-11-27T01:37:42.233Z,1005.42
2022-11-27T01:38:42.213Z,1005.40
2022-11-27T01:39:42.192Z,1005.34
2022-11-27T01:40:42.171Z,1005.36
2022-11-27T01:41:42.147Z,1005.32
2022-11-27T01:42:42.124Z,1005.32
2022-11-27T01:43:42.109Z,1005.30
2022-11-27T01:44:42.345Z,1005.32
2022-11-27T01:45:42.060Z,1005.30
2022-11-27T01:46:42.068Z,1005.32
2022-11-27T01:47:42.013Z,1005.30
2022-11-27T01:48:41.994Z,1005.33
2022-11-27T01:49:41.970Z,1005.30
2022-11-27T01:50:41.952Z,1005.29
2022-11-27T01:51:41.928Z,1005.31
2022-11-27T01:52:41.910Z,1005.26
2022-11-27T01:53:41.883Z,1005.25
2022-11-27T01:54:42.197Z,1005.27
2022-11-27T01:55:41.839Z,1005.25
2022-11-27T01:56:41.823Z,1005.22
2022-11-27T01:57:41.796Z,1005.24
2022-11-27T01:58:41.777Z,1005.23
2022-11-27T01:59:41.751Z,1005.21
2022-11-27T02:00:41.729Z,1005.22
2022-11-27T02:01:41.772Z,1005.19
2022-11-27T02:02:41.780Z,1005.16
2022-11-27T02:03:41.665Z,1005.16
2022-11-27T02:04:41.980Z,1005.13
2022-11-27T02:05:41.619Z,1005.18
2022-11-27T02:06:41.599Z,1005.15
2022-11-27T02:07:41.666Z,1005.20
2022-11-27T02:08:41.560Z,1005.20
2022-11-27T02:09:41.535Z,1005.20
2022-11-27T02:10:41.511Z,1005.21
2022-11-27T02:11:41.491Z,1005.21
2022-11-27T02:12:41.470Z,1005.22
2022-11-27T02:13:41.447Z,1005.22
2022-11-27T02:14:41.723Z,1005.17
2022-11-27T02:15:41.453Z,1005.20
2022-11-27T02:16:41.558Z,1005.19
2022-11-27T02:17:41.354Z,1005.17
2022-11-27T02:18:41.336Z,1005.17
2022-11-27T02:19:41.310Z,1005.14
2022-11-27T02:20:41.351Z,1005.15
2022-11-27T02:21:41.265Z,1005.15
2022-11-27T02:22:41.246Z,1005.13
2022-11-27T02:23:41.221Z,1005.13
2022-11-27T02:24:41.529Z,1005.11
2022-11-27T02:25:41.178Z,1005.10
2022-11-27T02:26:41.155Z,1005.07
2022-11-27T02:27:41.135Z,1005.08
2022-11-27T02:28:41.112Z,1005.06
2022-11-27T02:29:41.089Z,1005.00
2022-11-27T02:30:41.069Z,1005.00
2022-11-27T02:31:41.087Z,1004.98
2022-11-27T02:32:41.023Z,1004.94
2022-11-27T02:33:41.001Z,1004.95
2022-11-27T02:34:41.209Z,1004.97
2022-11-27T02:35:40.956Z,1004.93
2022-11-27T02:36:40.934Z,1004.95
2022-11-27T02:37:40.911Z,1004.92
2022-11-27T02:38:40.892Z,1004.89
2022-11-27T02:39:40.868Z,1004.95
2022-11-27T02:40:40.847Z,1004.96
2022-11-27T02:41:40.824Z,1004.90
2022-11-27T02:42:40.906Z,1004.91
2022-11-27T02:43:40.781Z,1004.87
2022-11-27T02:44:41.031Z,1004.88
2022-11-27T02:45:40.735Z,1004.88
2022-11-27T02:46:40.759Z,1004.86
2022-11-27T02:47:40.688Z,1004.83
2022-11-27T02:48:40.665Z,1004.82
2022-11-27T02:49:40.645Z,1004.83
2022-11-27T02:50:40.624Z,1004.87
2022-11-27T02:51:40.603Z,1004.88
2022-11-27T02:52:40.581Z,1004.90
2022-11-27T02:53:40.557Z,1004.93
2022-11-27T02:54:40.720Z,1004.95
2022-11-27T02:55:40.511Z,1004.97
2022-11-27T02:56:40.488Z,1005.00
2022-11-27T02:57:40.470Z,1005.01
2022-11-27T02:58:40.546Z,1004.99
2022-11-27T02:59:40.421Z,1004.98
2022-11-27T03:00:40.415Z,1004.97
2022-11-27T03:01:40.464Z,1004.99
2022-11-27T03:02:40.415Z,1004.94
2022-11-27T03:03:40.333Z,1004.89
2022-11-27T03:04:40.715Z,1004.90
2022-11-27T03:05:40.289Z,1004.85
2022-11-27T03:06:40.271Z,1004.84
2022-11-27T03:07:40.332Z,1004.80
2022-11-27T03:08:40.220Z,1004.80
2022-11-27T03:09:40.195Z,1004.79
2022-11-27T03:10:40.177Z,1004.73
2022-11-27T03:11:40.161Z,1004.73
2022-11-27T03:12:40.133Z,1004.77
2022-11-27T03:13:40.113Z,1004.73
2022-11-27T03:14:40.627Z,1004.75
2022-11-27T03:15:40.102Z,1004.71
2022-11-27T03:16:40.044Z,1004.76
2022-11-27T03:17:40.019Z,1004.71
2022-11-27T03:18:39.997Z,1004.70
2022-11-27T03:19:39.975Z,1004.73
2022-11-27T03:20:39.955Z,1004.74
2022-11-27T03:21:39.930Z,1004.76
2022-11-27T03:22:39.910Z,1004.73
2022-11-27T03:23:39.885Z,1004.74
2022-11-27T03:24:40.102Z,1004.70
2022-11-27T03:25:39.842Z,1004.73
2022-11-27T03:26:39.821Z,1004.71
2022-11-27T03:27:39.796Z,1004.73
2022-11-27T03:28:39.775Z,1004.70
2022-11-27T03:29:39.756Z,1004.71
2022-11-27T03:30:39.826Z,1004.72
2022-11-27T03:31:39.749Z,1004.68
2022-11-27T03:32:39.686Z,1004.65
2022-11-27T03:33:39.661Z,1004.67
2022-11-27T03:34:40.022Z,1004.64
2022-11-27T03:35:39.618Z,1004.65
2022-11-27T03:36:39.598Z,1004.60
2022-11-27T03:37:39.573Z,1004.59
2022-11-27T03:38:39.554Z,1004.52
2022-11-27T03:39:39.528Z,1004.51
2022-11-27T03:40:39.508Z,1004.48
2022-11-27T03:41:39.490Z,1004.50
2022-11-27T03:42:40.342Z,1004.42
2022-11-27T03:43:39.440Z,1004.43
2022-11-27T03:44:39.748Z,1004.42
2022-11-27T03:45:39.393Z,1004.42
2022-11-27T03:46:39.554Z,1004.42
2022-11-27T03:47:39.389Z,1004.44
2022-11-27T03:48:39.329Z,1004.44
2022-11-27T03:49:39.304Z,1004.50
2022-11-27T03:50:39.283Z,1004.52
2022-11-27T03:51:39.263Z,1004.50
2022-11-27T03:52:39.238Z,1004.55
2022-11-27T03:53:39.215Z,1004.56
2022-11-27T03:54:39.457Z,1004.58
2022-11-27T03:55:39.170Z,1004.60
2022-11-27T03:56:39.147Z,1004.57
2022-11-27T03:57:39.123Z,1004.64
2022-11-27T03:58:39.103Z,1004.64
2022-11-27T03:59:39.083Z,1004.64
2022-11-27T04:00:39.058Z,1004.65
2022-11-27T04:01:39.121Z,1004.69
2022-11-27T04:02:44.937Z,1004.66
2022-11-27T04:03:39.165Z,1004.62
2022-11-27T04:04:39.163Z,1004.56
2022-11-27T04:05:38.944Z,1004.53
2022-11-27T04:06:38.925Z,1004.49
2022-11-27T04:07:38.999Z,1004.48
2022-11-27T04:08:38.886Z,1004.42
2022-11-27T04:09:38.865Z,1004.42
2022-11-27T04:10:38.832Z,1004.35
2022-11-27T04:11:38.812Z,1004.33
2022-11-27T04:12:38.787Z,1004.33
2022-11-27T04:13:38.764Z,1004.30
2022-11-27T04:14:39.185Z,1004.29
2022-11-27T04:15:38.719Z,1004.28
2022-11-27T04:16:38.740Z,1004.28
2022-11-27T04:17:38.673Z,1004.31
2022-11-27T04:18:38.652Z,1004.26
2022-11-27T04:19:38.721Z,1004.31
2022-11-27T04:20:38.605Z,1004.30
2022-11-27T04:21:38.582Z,1004.33
2022-11-27T04:22:38.564Z,1004.32
2022-11-27T04:23:38.580Z,1004.30
2022-11-27T04:24:38.783Z,1004.26
2022-11-27T04:25:38.493Z,1004.24
2022-11-27T04:26:38.469Z,1004.24
2022-11-27T04:27:38.453Z,1004.23
2022-11-27T04:28:38.423Z,1004.20
2022-11-27T04:29:38.404Z,1004.17
2022-11-27T04:30:38.381Z,1004.19
2022-11-27T04:31:38.389Z,1004.18
2022-11-27T04:32:38.332Z,1004.16
2022-11-27T04:33:38.312Z,1004.15
2022-11-27T04:34:38.564Z,1004.19
2022-11-27T04:35:38.363Z,1004.15
2022-11-27T04:36:39.683Z,1004.16
2022-11-27T04:37:38.227Z,1004.14
2022-11-27T04:38:38.196Z,1004.14
2022-11-27T04:39:38.176Z,1004.14
2022-11-27T04:40:38.152Z,1004.16
2022-11-27T04:41:38.129Z,1004.09
2022-11-27T04:42:38.112Z,1004.08
2022-11-27T04:43:38.082Z,1004.08
2022-11-27T04:44:38.416Z,1004.08
2022-11-27T04:45:38.039Z,1004.02
2022-11-27T04:46:38.054Z,1004.05
2022-11-27T04:47:37.992Z,1004.03
2022-11-27T04:48:37.968Z,1004.00
2022-11-27T04:49:37.950Z,1004.00
2022-11-27T04:50:37.929Z,1004.03
2022-11-27T04:51:43.882Z,1004.01
2022-11-27T04:52:37.976Z,1003.99
2022-11-27T04:53:37.859Z,1003.96
2022-11-27T04:54:38.124Z,1003.98
2022-11-27T04:55:37.813Z,1003.99
2022-11-27T04:56:37.791Z,1004.01
2022-11-27T04:57:37.770Z,1004.00
2022-11-27T04:58:37.745Z,1003.99
2022-11-27T04:59:37.726Z,1003.99
2022-11-27T05:00:37.751Z,1004.00
2022-11-27T05:01:37.677Z,1003.95
2022-11-27T05:02:37.734Z,1003.97
2022-11-27T05:03:37.633Z,1003.94
2022-11-27T05:04:37.835Z,1004.00
2022-11-27T05:05:37.588Z,1004.02
2022-11-27T05:06:37.566Z,1004.03
2022-11-27T05:07:37.599Z,1004.05
2022-11-27T05:08:37.612Z,1004.00
2022-11-27T05:09:37.495Z,1004.01
2022-11-27T05:10:37.476Z,1004.01
2022-11-27T05:11:37.457Z,1004.02
2022-11-27T05:12:37.435Z,1003.99
2022-11-27T05:13:37.407Z,1004.00
2022-11-27T05:14:37.664Z,1003.99
2022-11-27T05:15:37.363Z,1004.02
2022-11-27T05:16:37.430Z,1004.01
2022-11-27T05:17:37.320Z,1003.98
2022-11-27T05:18:37.292Z,1003.99
2022-11-27T05:19:37.280Z,1003.99
2022-11-27T05:20:37.277Z,1003.99
2022-11-27T05:21:37.245Z,1003.99
2022-11-27T05:22:37.204Z,1003.99
2022-11-27T05:23:37.183Z,1003.99
2022-11-27T05:24:37.359Z,1004.05
2022-11-27T05:25:37.138Z,1004.04
2022-11-27T05:26:37.116Z,1004.02
2022-11-27T05:27:37.094Z,1003.98
2022-11-27T05:28:37.072Z,1003.96
2022-11-27T05:29:37.047Z,1003.95
2022-11-27T05:30:37.025Z,1003.95
2022-11-27T05:31:37.045Z,1003.94
2022-11-27T05:32:36.979Z,1003.93
2022-11-27T05:33:36.957Z,1003.85
2022-11-27T05:34:36.943Z,1003.83
2022-11-27T05:35:36.915Z,1003.82
2022-11-27T05:36:36.887Z,1003.82
2022-11-27T05:37:36.904Z,1003.83
2022-11-27T05:38:36.843Z,1003.83
2022-11-27T05:39:36.832Z,1003.82
2022-11-27T05:40:36.893Z,1003.80
2022-11-27T05:41:36.782Z,1003.83
2022-11-27T05:42:36.753Z,1003.81
2022-11-27T05:43:36.730Z,1003.81
2022-11-27T05:44:36.711Z,1003.79
2022-11-27T05:45:36.694Z,1003.81
2022-11-27T05:46:36.751Z,1003.81
2022-11-27T05:47:36.642Z,1003.80
2022-11-27T05:48:36.619Z,1003.80
2022-11-27T05:49:36.597Z,1003.86
2022-11-27T05:50:36.585Z,1003.85
2022-11-27T05:51:36.550Z,1003.86
2022-11-27T05:52:36.533Z,1003.85
2022-11-27T05:53:36.508Z,1003.89
2022-11-27T05:54:36.484Z,1003.87
2022-11-27T05:55:36.462Z,1003.89
2022-11-27T05:56:36.531Z,1003.85
2022-11-27T05:57:36.421Z,1003.82
2022-11-27T05:58:36.398Z,1003.84
2022-11-27T05:59:36.374Z,1003.86
2022-11-27T06:00:36.348Z,1003.94
2022-11-27T06:01:36.346Z,1003.87
2022-11-27T06:02:36.401Z,1003.90
2022-11-27T06:03:36.337Z,1003.89
2022-11-27T06:04:36.254Z,1003.90
2022-11-27T06:05:36.234Z,1003.86
2022-11-27T06:06:36.210Z,1003.85
2022-11-27T06:07:36.238Z,1003.84
2022-11-27T06:08:36.164Z,1003.88
2022-11-27T06:09:36.144Z,1003.87
2022-11-27T06:10:36.120Z,1003.85
2022-11-27T06:11:36.099Z,1003.87
2022-11-27T06:12:36.169Z,1003.84
2022-11-27T06:13:36.055Z,1003.84
2022-11-27T06:14:36.031Z,1003.82
2022-11-27T06:15:36.029Z,1003.81
2022-11-27T06:16:36.054Z,1003.80
2022-11-27T06:17:35.968Z,1003.78
2022-11-27T06:18:35.941Z,1003.76
2022-11-27T06:19:35.923Z,1003.73
2022-11-27T06:20:39.536Z,1003.72
2022-11-27T06:21:35.872Z,1003.74
2022-11-27T06:22:35.852Z,1003.70
2022-11-27T06:23:35.828Z,1003.76
2022-11-27T06:24:35.807Z,1003.72
2022-11-27T06:25:35.782Z,1003.70
2022-11-27T06:26:35.757Z,1003.62
2022-11-27T06:27:35.736Z,1003.64
2022-11-27T06:28:35.812Z,1003.58
2022-11-27T06:29:35.691Z,1003.53
2022-11-27T06:30:35.671Z,1003.55
2022-11-27T06:31:35.659Z,1003.51
2022-11-27T06:32:35.634Z,1003.55
2022-11-27T06:33:35.604Z,1003.57
2022-11-27T06:34:35.580Z,1003.62
2022-11-27T06:35:35.558Z,1003.65
2022-11-27T06:36:35.536Z,1003.56
2022-11-27T06:37:35.519Z,1003.59
2022-11-27T06:38:35.492Z,1003.55
2022-11-27T06:39:35.470Z,1003.51
2022-11-27T06:40:35.444Z,1003.47
2022-11-27T06:41:35.421Z,1003.45
2022-11-27T06:42:35.400Z,1003.47
2022-11-27T06:43:43.147Z,1003.46
2022-11-27T06:45:39.628Z,1003.53
2022-11-27T06:46:39.500Z,1003.54
2022-11-27T06:48:43.921Z,1003.57
2022-11-27T06:49:43.893Z,1003.55
2022-11-27T06:51:48.305Z,1003.60
2022-11-27T06:52:48.273Z,1003.56
2022-11-27T06:54:41.847Z,1003.53
2022-11-27T06:55:41.606Z,1003.53
2022-11-27T06:57:59.390Z,1003.40
2022-11-27T06:58:59.458Z,1003.44
2022-11-27T07:01:03.846Z,1003.41
2022-11-27T07:02:03.846Z,1003.42
2022-11-27T07:03:58.141Z,1003.39
2022-11-27T07:04:58.101Z,1003.34
2022-11-27T07:05:58.076Z,1003.33
2022-11-27T07:06:58.059Z,1003.30
2022-11-27T07:07:58.090Z,1003.32
2022-11-27T07:08:58.012Z,1003.30
2022-11-27T07:09:57.988Z,1003.28
2022-11-27T07:10:57.968Z,1003.26
2022-11-27T07:11:57.942Z,1003.23
2022-11-27T07:12:57.923Z,1003.26
2022-11-27T07:13:57.901Z,1003.29
2022-11-27T07:15:02.886Z,1003.27
2022-11-27T07:15:57.945Z,1003.27
2022-11-27T07:16:57.905Z,1003.26
2022-11-27T07:17:57.818Z,1003.23
2022-11-27T07:18:57.793Z,1003.23
2022-11-27T07:19:57.768Z,1003.25
2022-11-27T07:20:57.747Z,1003.31
2022-11-27T07:21:57.724Z,1003.34
2022-11-27T07:22:57.703Z,1003.31
2022-11-27T07:23:57.683Z,1003.34
2022-11-27T07:24:57.661Z,1003.30
2022-11-27T07:25:57.641Z,1003.32
2022-11-27T07:26:57.673Z,1003.30
2022-11-27T07:27:57.605Z,1003.28
2022-11-27T07:28:57.573Z,1003.25
2022-11-27T07:29:57.553Z,1003.27
2022-11-27T07:30:57.637Z,1003.25
2022-11-27T07:31:57.528Z,1003.18
2022-11-27T07:32:57.484Z,1003.20
2022-11-27T07:33:57.481Z,1003.18
2022-11-27T07:34:57.441Z,1003.13
2022-11-27T07:35:57.416Z,1003.11
2022-11-27T07:36:57.396Z,1003.12
2022-11-27T07:37:57.375Z,1003.11
2022-11-27T07:38:57.352Z,1003.12
2022-11-27T07:40:03.909Z,1003.13
2022-11-27T07:40:57.308Z,1003.11
2022-11-27T07:42:00.031Z,1003.16
2022-11-27T07:42:57.264Z,1003.15
2022-11-27T07:43:57.240Z,1003.12
2022-11-27T07:44:57.223Z,1003.11
2022-11-27T07:45:57.266Z,1003.09
2022-11-27T07:46:57.271Z,1003.16
2022-11-27T07:47:57.153Z,1003.12
2022-11-27T07:48:57.134Z,1003.16
2022-11-27T07:49:57.112Z,1003.15
2022-11-27T07:50:57.111Z,1003.17
2022-11-27T07:51:57.069Z,1003.16
2022-11-27T07:52:57.046Z,1003.15
2022-11-27T07:53:57.021Z,1003.17
2022-11-27T07:54:57.018Z,1003.15
2022-11-27T07:55:56.978Z,1003.22
2022-11-27T07:56:56.961Z,1003.20
2022-11-27T07:57:56.940Z,1003.13
2022-11-27T07:58:56.914Z,1003.07
2022-11-27T07:59:56.899Z,1003.04
2022-11-27T08:00:56.913Z,1003.03
2022-11-27T08:01:56.847Z,1003.03
2022-11-27T08:02:56.922Z,1003.03
2022-11-27T08:03:56.804Z,1003.03
2022-11-27T08:04:56.834Z,1003.02
2022-11-27T08:05:56.760Z,1003.08
2022-11-27T08:06:56.850Z,1003.11
2022-11-27T08:07:56.775Z,1003.14
2022-11-27T08:08:56.755Z,1003.14
2022-11-27T08:09:56.673Z,1003.14
2022-11-27T08:10:56.658Z,1003.15
2022-11-27T08:11:56.630Z,1003.12
2022-11-27T08:12:56.611Z,1003.11
2022-11-27T08:13:56.588Z,1003.13
2022-11-27T08:14:56.565Z,1003.14
2022-11-27T08:15:56.576Z,1003.14
2022-11-27T08:16:56.629Z,1003.08
2022-11-27T08:17:56.498Z,1003.09
2022-11-27T08:18:56.579Z,1003.10
2022-11-27T08:19:56.455Z,1003.13
2022-11-27T08:20:56.436Z,1003.13
2022-11-27T08:21:56.419Z,1003.14
2022-11-27T08:23:02.325Z,1003.14
2022-11-27T08:23:56.375Z,1003.16
2022-11-27T08:24:56.354Z,1003.16
2022-11-27T08:25:56.330Z,1003.14
2022-11-27T08:26:56.309Z,1003.13
2022-11-27T08:27:56.287Z,1003.10
2022-11-27T08:28:56.280Z,1003.08
2022-11-27T08:29:56.246Z,1003.05
2022-11-27T08:30:56.228Z,1002.98
2022-11-27T08:31:56.243Z,1002.94
2022-11-27T08:32:56.186Z,1002.86
2022-11-27T08:33:56.163Z,1002.81
2022-11-27T08:34:56.243Z,1002.80
2022-11-27T08:35:56.121Z,1002.82
2022-11-27T08:36:56.102Z,1002.77
2022-11-27T08:37:56.081Z,1002.76
2022-11-27T08:38:56.061Z,1002.79
2022-11-27T08:39:56.042Z,1002.80
2022-11-27T08:40:56.023Z,1002.85
2022-11-27T08:41:56.001Z,1002.84
2022-11-27T08:42:55.980Z,1002.87
2022-11-27T08:43:55.961Z,1002.87
2022-11-27T08:44:55.941Z,1002.88
2022-11-27T08:45:55.989Z,1002.97
2022-11-27T08:46:55.898Z,1002.94
2022-11-27T08:47:55.878Z,1002.97
2022-11-27T08:48:55.860Z,1002.97
2022-11-27T08:49:55.840Z,1003.03
2022-11-27T08:50:55.915Z,1003.01
2022-11-27T08:51:55.801Z,1003.01
2022-11-27T08:52:55.780Z,1002.94
2022-11-27T08:53:55.763Z,1002.91
2022-11-27T08:54:57.819Z,1002.83
2022-11-27T08:55:55.721Z,1002.84
2022-11-27T08:56:55.705Z,1002.87
2022-11-27T08:57:55.683Z,1002.87
2022-11-27T08:58:55.666Z,1002.90
2022-11-27T08:59:55.661Z,1002.90
2022-11-27T09:00:55.722Z,1002.84
2022-11-27T09:01:55.606Z,1002.86
2022-11-27T09:02:55.589Z,1002.79
2022-11-27T09:03:55.609Z,1002.81
2022-11-27T09:04:55.553Z,1002.74
2022-11-27T09:05:55.531Z,1002.79
2022-11-27T09:06:58.677Z,1002.77
2022-11-27T09:07:55.524Z,1002.74
2022-11-27T09:08:55.477Z,1002.77
2022-11-27T09:09:55.454Z,1002.74
2022-11-27T09:10:55.437Z,1002.77
2022-11-27T09:11:55.416Z,1002.73
2022-11-27T09:12:55.398Z,1002.68
2022-11-27T09:13:55.377Z,1002.73
2022-11-27T09:14:55.359Z,1002.76
2022-11-27T09:15:55.340Z,1002.69
2022-11-27T09:16:55.363Z,1002.69
2022-11-27T09:17:55.304Z,1002.69
2022-11-27T09:18:55.282Z,1002.70
2022-11-27T09:19:55.266Z,1002.68
2022-11-27T09:20:55.249Z,1002.65
2022-11-27T09:21:55.227Z,1002.60
2022-11-27T09:22:55.304Z,1002.54
2022-11-27T09:23:55.198Z,1002.53
2022-11-27T09:24:55.174Z,1002.54
2022-11-27T09:25:55.157Z,1002.57
2022-11-27T09:26:55.138Z,1002.52
2022-11-27T09:27:55.117Z,1002.50
2022-11-27T09:28:55.098Z,1002.47
2022-11-27T09:29:55.078Z,1002.49
2022-11-27T09:30:55.065Z,1002.47
2022-11-27T09:31:55.082Z,1002.48
2022-11-27T09:32:55.025Z,1002.44
2022-11-27T09:33:55.006Z,1002.46
2022-11-27T09:34:55.059Z,1002.45
2022-11-27T09:35:54.971Z,1002.45
2022-11-27T09:36:54.952Z,1002.45
2022-11-27T09:37:54.936Z,1002.45
2022-11-27T09:39:00.832Z,1002.52
2022-11-27T09:39:54.993Z,1002.49
2022-11-27T09:40:57.082Z,1002.54
2022-11-27T09:41:54.863Z,1002.50
2022-11-27T09:42:54.847Z,1002.50
2022-11-27T09:43:54.831Z,1002.51
2022-11-27T09:44:54.813Z,1002.49
2022-11-27T09:45:54.887Z,1002.49
2022-11-27T09:46:54.776Z,1002.53
2022-11-27T09:47:54.755Z,1002.51
2022-11-27T09:48:54.743Z,1002.48
2022-11-27T09:49:54.728Z,1002.44
2022-11-27T09:50:54.707Z,1002.38
2022-11-27T09:51:54.705Z,1002.37
2022-11-27T09:52:54.672Z,1002.32
2022-11-27T09:53:54.654Z,1002.33
2022-11-27T09:54:54.650Z,1002.32
2022-11-27T09:55:54.717Z,1002.33
2022-11-27T09:56:54.626Z,1002.35
2022-11-27T09:57:54.587Z,1002.38
2022-11-27T09:58:54.571Z,1002.38
2022-11-27T09:59:54.554Z,1002.36
2022-11-27T10:00:54.537Z,1002.39
2022-11-27T10:01:54.603Z,1002.41
2022-11-27T10:02:54.594Z,1002.36
2022-11-27T10:03:54.483Z,1002.37
2022-11-27T10:05:18.253Z,1002.35
2022-11-27T10:05:54.452Z,1002.36
2022-11-27T10:06:54.433Z,1002.30
2022-11-27T10:07:54.453Z,1002.28
2022-11-27T10:08:54.404Z,1002.28
2022-11-27T10:09:54.384Z,1002.20
2022-11-27T10:10:54.366Z,1002.19
2022-11-27T10:11:54.444Z,1002.08
2022-11-27T10:12:54.336Z,1002.04
2022-11-27T10:13:54.333Z,1002.03
2022-11-27T10:14:54.302Z,1002.09
2022-11-27T10:15:54.290Z,1001.96
2022-11-27T10:16:54.308Z,1002.02
2022-11-27T10:17:54.253Z,1001.98
2022-11-27T10:18:54.238Z,1001.96
2022-11-27T10:19:54.219Z,1001.97
2022-11-27T10:20:54.205Z,1001.91
2022-11-27T10:21:54.213Z,1001.85
2022-11-27T10:22:54.171Z,1001.87
2022-11-27T10:23:54.158Z,1001.86
2022-11-27T10:24:54.140Z,1001.80
2022-11-27T10:25:54.123Z,1001.81
2022-11-27T10:26:54.111Z,1001.81
2022-11-27T10:27:54.193Z,1001.79
2022-11-27T10:28:54.076Z,1001.77
2022-11-27T10:29:54.061Z,1001.80
2022-11-27T10:30:54.043Z,1001.74
2022-11-27T10:31:54.105Z,1001.73
2022-11-27T10:32:55.694Z,1001.68
2022-11-27T10:33:54.000Z,1001.68
2022-11-27T10:34:53.980Z,1001.67
2022-11-27T10:35:53.966Z,1001.62
2022-11-27T10:36:53.946Z,1001.55
2022-11-27T10:37:53.946Z,1001.57
2022-11-27T10:38:53.916Z,1001.51
2022-11-27T10:39:53.914Z,1001.54
2022-11-27T10:40:53.883Z,1001.52
2022-11-27T10:41:53.865Z,1001.47
2022-11-27T10:42:53.852Z,1001.42
2022-11-27T10:43:53.949Z,1001.38
2022-11-27T10:44:53.815Z,1001.37
2022-11-27T10:45:53.851Z,1001.36
2022-11-27T10:46:53.787Z,1001.32
2022-11-27T10:47:53.768Z,1001.32
2022-11-27T10:48:53.778Z,1001.30
2022-11-27T10:49:53.737Z,1001.29
2022-11-27T10:50:53.736Z,1001.27
2022-11-27T10:51:53.706Z,1001.27
2022-11-27T10:52:53.684Z,1001.26
2022-11-27T10:53:53.675Z,1001.24
2022-11-27T10:54:53.656Z,1001.25
2022-11-27T10:55:53.658Z,1001.16
2022-11-27T10:56:53.621Z,1001.14
2022-11-27T10:57:53.623Z,1001.20
2022-11-27T10:58:53.586Z,1001.14
2022-11-27T10:59:53.678Z,1001.12
2022-11-27T11:00:53.613Z,1001.13
2022-11-27T11:01:53.648Z,1001.08
2022-11-27T11:02:53.555Z,1001.10
2022-11-27T11:03:53.507Z,1001.08
2022-11-27T11:05:16.124Z,1001.09
2022-11-27T11:06:18.537Z,1001.13
2022-11-27T11:06:53.461Z,1001.13
2022-11-27T11:07:53.538Z,1001.11
2022-11-27T11:08:57.168Z,1001.07
2022-11-27T11:09:53.409Z,1001.07
2022-11-27T11:10:53.394Z,1001.04
2022-11-27T11:11:53.380Z,1001.04
2022-11-27T11:12:53.361Z,1001.00
2022-11-27T11:13:53.344Z,1001.06
2022-11-27T11:14:53.330Z,1001.04
2022-11-27T11:15:53.464Z,1000.98
2022-11-27T11:16:53.393Z,1001.02
2022-11-27T11:17:53.282Z,1001.02
2022-11-27T11:18:53.286Z,1000.98
2022-11-27T11:19:53.253Z,1000.94
2022-11-27T11:20:53.233Z,1000.94
2022-11-27T11:21:53.234Z,1000.93
2022-11-27T11:22:53.205Z,1000.87
2022-11-27T11:23:53.187Z,1000.90
2022-11-27T11:24:53.196Z,1000.84
2022-11-27T11:25:53.156Z,1000.77
2022-11-27T11:26:53.144Z,1000.76
2022-11-27T11:27:53.127Z,1000.74
2022-11-27T11:28:53.111Z,1000.70
2022-11-27T11:29:53.098Z,1000.67
2022-11-27T11:30:53.085Z,1000.65
2022-11-27T11:31:53.207Z,1000.63
2022-11-27T11:32:53.055Z,1000.66
2022-11-27T11:33:53.060Z,1000.62
2022-11-27T11:34:57.648Z,1000.59
2022-11-27T11:35:53.024Z,1000.55
2022-11-27T11:36:52.994Z,1000.57
2022-11-27T11:37:52.981Z,1000.60
2022-11-27T11:38:52.964Z,1000.61
2022-11-27T11:39:52.963Z,1000.59
2022-11-27T11:40:52.945Z,1000.57
2022-11-27T11:41:52.925Z,1000.54
2022-11-27T11:42:52.907Z,1000.57
2022-11-27T11:43:52.893Z,1000.57
2022-11-27T11:44:52.874Z,1000.60
2022-11-27T11:45:52.880Z,1000.61
2022-11-27T11:46:52.849Z,1000.57
2022-11-27T11:47:52.928Z,1000.57
2022-11-27T11:48:52.819Z,1000.55
2022-11-27T11:49:52.811Z,1000.51
2022-11-27T11:50:52.791Z,1000.48
2022-11-27T11:51:52.777Z,1000.48
2022-11-27T11:52:52.762Z,1000.46
2022-11-27T11:53:52.747Z,1000.42
2022-11-27T11:54:52.746Z,1000.43
2022-11-27T11:55:52.720Z,1000.45
2022-11-27T11:56:52.708Z,1000.35
2022-11-27T11:57:52.690Z,1000.29
2022-11-27T11:58:52.675Z,1000.25
2022-11-27T11:59:52.661Z,1000.17
2022-11-27T12:01:19.256Z,1000.16
2022-11-27T12:01:52.653Z,1000.17
2022-11-27T12:02:52.622Z,1000.10
2022-11-27T12:03:52.727Z,1000.17
2022-11-27T12:04:52.671Z,1000.15
2022-11-27T12:05:52.578Z,1000.08
2022-11-27T12:06:52.569Z,1000.08
2022-11-27T12:07:52.828Z,1000.07
2022-11-27T12:08:52.536Z,1000.06
2022-11-27T12:09:52.539Z,1000.02
2022-11-27T12:10:52.513Z,1000.04
2022-11-27T12:11:52.496Z,999.97
2022-11-27T12:12:52.483Z,999.91
2022-11-27T12:13:52.468Z,999.90
2022-11-27T12:14:52.473Z,999.84
2022-11-27T12:15:52.442Z,999.90
2022-11-27T12:16:52.487Z,999.82
2022-11-27T12:17:52.440Z,999.80
2022-11-27T12:18:52.395Z,999.79
2022-11-27T12:19:52.482Z,999.74
2022-11-27T12:20:52.369Z,999.79
2022-11-27T12:21:52.370Z,999.78
2022-11-27T12:22:52.341Z,999.75
2022-11-27T12:23:52.322Z,999.75
2022-11-27T12:24:52.306Z,999.71
2022-11-27T12:25:52.299Z,999.72
2022-11-27T12:26:52.281Z,999.70
2022-11-27T12:27:52.265Z,999.71
2022-11-27T12:28:58.825Z,999.75
2022-11-27T12:29:52.237Z,999.71
2022-11-27T12:30:53.196Z,999.68
2022-11-27T12:31:52.362Z,999.68
2022-11-27T12:32:52.192Z,999.67
2022-11-27T12:33:52.180Z,999.64
2022-11-27T12:34:52.160Z,999.61